createdAt,value
2017-06-19T00:00:37.547Z,962.4
2017-06-19T00:01:37.541Z,962.41
2017-06-19T00:02:37.535Z,962.42
2017-06-19T00:03:37.529Z,962.39
2017-06-19T00:04:37.522Z,962.38
2017-06-19T00:05:37.516Z,962.35
2017-06-19T00:06:37.511Z,962.37
2017-06-19T00:07:37.504Z,962.3
2017-06-19T00:08:37.497Z,962.31
2017-06-19T00:09:37.493Z,962.35
2017-06-19T00:10:37.487Z,962.32
2017-06-19T00:11:37.480Z,962.31
2017-06-19T00:12:37.477Z,962.27
2017-06-19T00:13:37.468Z,962.28
2017-06-19T00:14:37.465Z,962.28
2017-06-19T00:15:37.455Z,962.29
2017-06-19T00:16:37.450Z,962.27
2017-06-19T00:17:37.443Z,962.27
2017-06-19T00:18:37.438Z,962.29
2017-06-19T00:19:37.431Z,962.31
2017-06-19T00:20:37.425Z,962.26
2017-06-19T00:21:37.420Z,962.24
2017-06-19T00:22:37.412Z,962.24
2017-06-19T00:23:37.407Z,962.26
2017-06-19T00:24:37.401Z,962.25
2017-06-19T00:25:37.394Z,962.24
2017-06-19T00:26:37.388Z,962.2
2017-06-19T00:27:37.383Z,962.24
2017-06-19T00:28:37.375Z,962.17
2017-06-19T00:29:37.370Z,962.19
2017-06-19T00:30:37.363Z,962.21
2017-06-19T00:31:37.358Z,962.23
2017-06-19T00:32:37.351Z,962.22
2017-06-19T00:33:37.361Z,962.22
2017-06-19T00:34:37.339Z,962.18
2017-06-19T00:35:37.331Z,962.17
2017-06-19T00:36:37.326Z,962.18
2017-06-19T00:37:37.321Z,962.16
2017-06-19T00:38:37.313Z,962.14
2017-06-19T00:39:37.307Z,962.15
2017-06-19T00:40:37.317Z,962.21
2017-06-19T00:41:37.295Z,962.14
2017-06-19T00:42:37.289Z,962.15
2017-06-19T00:43:37.282Z,962.17
2017-06-19T00:44:37.275Z,962.19
2017-06-19T00:45:37.270Z,962.19
2017-06-19T00:46:37.263Z,962.16
2017-06-19T00:47:37.257Z,962.18
2017-06-19T00:48:37.251Z,962.17
2017-06-19T00:49:37.243Z,962.13
2017-06-19T00:50:37.237Z,962.14
2017-06-19T00:51:37.231Z,962.16
2017-06-19T00:52:37.225Z,962.09
2017-06-19T00:53:37.271Z,962.08
2017-06-19T00:54:37.212Z,962.07
2017-06-19T00:55:37.207Z,962.09
2017-06-19T00:56:37.199Z,962.03
2017-06-19T00:57:37.193Z,962.09
2017-06-19T00:58:37.186Z,962.06
2017-06-19T00:59:37.181Z,962.06
2017-06-19T01:00:37.173Z,962.05
2017-06-19T01:01:37.168Z,962.06
2017-06-19T01:02:37.176Z,962.05
2017-06-19T01:03:37.154Z,962.08
2017-06-19T01:04:37.149Z,962.04
2017-06-19T01:05:37.143Z,962.03
2017-06-19T01:06:37.158Z,962
2017-06-19T01:07:37.129Z,961.97
2017-06-19T01:08:37.123Z,961.96
2017-06-19T01:09:37.116Z,961.96
2017-06-19T01:10:37.111Z,961.97
2017-06-19T01:11:37.105Z,961.95
2017-06-19T01:12:37.097Z,961.93
2017-06-19T01:13:37.093Z,961.96
2017-06-19T01:14:37.087Z,961.97
2017-06-19T01:15:37.079Z,961.95
2017-06-19T01:16:37.073Z,961.9
2017-06-19T01:17:37.067Z,961.91
2017-06-19T01:18:37.061Z,961.9
2017-06-19T01:19:37.053Z,961.89
2017-06-19T01:20:37.069Z,961.91
2017-06-19T01:21:37.041Z,961.84
2017-06-19T01:22:37.036Z,961.87
2017-06-19T01:23:37.028Z,961.86
2017-06-19T01:24:37.021Z,961.88
2017-06-19T01:25:37.015Z,961.88
2017-06-19T01:26:37.010Z,961.88
2017-06-19T01:27:37.003Z,961.85
2017-06-19T01:28:36.996Z,961.8
2017-06-19T01:29:36.991Z,961.81
2017-06-19T01:30:36.983Z,961.79
2017-06-19T01:31:36.977Z,961.82
2017-06-19T01:32:36.970Z,961.8
2017-06-19T01:33:36.963Z,961.81
2017-06-19T01:34:36.958Z,961.79
2017-06-19T01:35:36.951Z,961.81
2017-06-19T01:36:36.945Z,961.85
2017-06-19T01:37:36.939Z,961.82
2017-06-19T01:38:36.932Z,961.84
2017-06-19T01:39:36.927Z,961.83
2017-06-19T01:40:36.921Z,961.89
2017-06-19T01:41:36.912Z,961.85
2017-06-19T01:42:36.906Z,961.84
2017-06-19T01:43:36.913Z,961.85
2017-06-19T01:44:36.895Z,961.84
2017-06-19T01:45:36.916Z,961.84
2017-06-19T01:46:36.882Z,961.85
2017-06-19T01:47:36.876Z,961.83
2017-06-19T01:48:36.871Z,961.8
2017-06-19T01:49:36.862Z,961.78
2017-06-19T01:50:36.857Z,961.77
2017-06-19T01:51:36.851Z,961.8
2017-06-19T01:52:36.843Z,961.77
2017-06-19T01:53:36.839Z,961.8
2017-06-19T01:54:36.831Z,961.8
2017-06-19T01:55:36.826Z,961.79
2017-06-19T01:56:36.819Z,961.79
2017-06-19T01:57:36.813Z,961.82
2017-06-19T01:58:36.807Z,961.81
2017-06-19T01:59:36.801Z,961.82
2017-06-19T02:00:36.796Z,961.81
2017-06-19T02:01:36.789Z,961.81
2017-06-19T02:02:36.783Z,961.79
2017-06-19T02:03:36.785Z,961.8
2017-06-19T02:04:36.770Z,961.75
2017-06-19T02:05:36.764Z,961.81
2017-06-19T02:06:36.757Z,961.77
2017-06-19T02:07:36.751Z,961.74
2017-06-19T02:08:36.745Z,961.72
2017-06-19T02:09:36.740Z,961.75
2017-06-19T02:10:36.735Z,961.69
2017-06-19T02:11:36.726Z,961.73
2017-06-19T02:12:36.720Z,961.72
2017-06-19T02:13:36.714Z,961.72
2017-06-19T02:14:36.707Z,961.7
2017-06-19T02:15:36.700Z,961.68
2017-06-19T02:16:36.703Z,961.7
2017-06-19T02:17:36.689Z,961.7
2017-06-19T02:18:36.682Z,961.69
2017-06-19T02:19:36.686Z,961.67
2017-06-19T02:20:36.671Z,961.69
2017-06-19T02:21:36.665Z,961.7
2017-06-19T02:22:36.657Z,961.68
2017-06-19T02:23:36.855Z,961.68
2017-06-19T02:24:36.646Z,961.69
2017-06-19T02:25:36.649Z,961.67
2017-06-19T02:26:36.634Z,961.7
2017-06-19T02:27:36.628Z,961.67
2017-06-19T02:28:36.639Z,961.69
2017-06-19T02:29:36.613Z,961.7
2017-06-19T02:30:36.610Z,961.71
2017-06-19T02:31:36.603Z,961.67
2017-06-19T02:32:36.596Z,961.71
2017-06-19T02:33:36.590Z,961.72
2017-06-19T02:34:36.584Z,961.73
2017-06-19T02:35:36.577Z,961.72
2017-06-19T02:36:36.570Z,961.72
2017-06-19T02:37:36.565Z,961.74
2017-06-19T02:38:36.560Z,961.72
2017-06-19T02:39:36.553Z,961.71
2017-06-19T02:40:36.547Z,961.69
2017-06-19T02:41:36.541Z,961.66
2017-06-19T02:42:36.536Z,961.71
2017-06-19T02:43:36.528Z,961.67
2017-06-19T02:44:36.522Z,961.67
2017-06-19T02:45:36.516Z,961.71
2017-06-19T02:46:36.510Z,961.64
2017-06-19T02:47:36.504Z,961.7
2017-06-19T02:48:36.498Z,961.7
2017-06-19T02:49:36.492Z,961.69
2017-06-19T02:50:36.486Z,961.66
2017-06-19T02:51:36.481Z,961.71
2017-06-19T02:52:36.473Z,961.74
2017-06-19T02:53:36.475Z,961.71
2017-06-19T02:54:36.462Z,961.74
2017-06-19T02:55:36.455Z,961.71
2017-06-19T02:56:36.449Z,961.76
2017-06-19T02:57:36.444Z,961.77
2017-06-19T02:58:36.436Z,961.74
2017-06-19T02:59:36.430Z,961.79
2017-06-19T03:00:36.424Z,961.78
2017-06-19T03:01:36.421Z,961.78
2017-06-19T03:02:36.412Z,961.81
2017-06-19T03:03:36.406Z,961.79
2017-06-19T03:04:36.400Z,961.76
2017-06-19T03:05:36.393Z,961.75
2017-06-19T03:06:36.386Z,961.7
2017-06-19T03:07:36.381Z,961.71
2017-06-19T03:08:36.375Z,961.72
2017-06-19T03:09:36.369Z,961.68
2017-06-19T03:10:36.363Z,961.73
2017-06-19T03:11:36.357Z,961.68
2017-06-19T03:12:36.350Z,961.66
2017-06-19T03:13:36.343Z,961.7
2017-06-19T03:14:36.338Z,961.66
2017-06-19T03:15:36.332Z,961.66
2017-06-19T03:16:36.326Z,961.68
2017-06-19T03:17:36.320Z,961.68
2017-06-19T03:18:36.314Z,961.66
2017-06-19T03:19:36.309Z,961.64
2017-06-19T03:20:36.303Z,961.63
2017-06-19T03:21:36.296Z,961.64
2017-06-19T03:22:36.290Z,961.65
2017-06-19T03:23:36.285Z,961.63
2017-06-19T03:24:36.278Z,961.64
2017-06-19T03:25:36.272Z,961.59
2017-06-19T03:26:36.266Z,961.65
2017-06-19T03:27:36.258Z,961.65
2017-06-19T03:28:36.254Z,961.62
2017-06-19T03:29:36.248Z,961.63
2017-06-19T03:30:36.242Z,961.62
2017-06-19T03:31:36.243Z,961.66
2017-06-19T03:32:36.230Z,961.69
2017-06-19T03:33:36.224Z,961.66
2017-06-19T03:34:36.219Z,961.7
2017-06-19T03:35:36.213Z,961.7
2017-06-19T03:36:36.208Z,961.67
2017-06-19T03:37:36.201Z,961.7
2017-06-19T03:38:36.194Z,961.68
2017-06-19T03:39:36.188Z,961.67
2017-06-19T03:40:36.183Z,961.69
2017-06-19T03:41:36.177Z,961.66
2017-06-19T03:42:36.170Z,961.7
2017-06-19T03:43:36.165Z,961.66
2017-06-19T03:44:36.159Z,961.73
2017-06-19T03:45:36.153Z,961.72
2017-06-19T03:46:36.146Z,961.71
2017-06-19T03:47:36.141Z,961.72
2017-06-19T03:48:36.135Z,961.69
2017-06-19T03:49:36.129Z,961.74
2017-06-19T03:50:36.123Z,961.73
2017-06-19T03:51:36.117Z,961.71
2017-06-19T03:52:36.122Z,961.69
2017-06-19T03:53:36.107Z,961.74
2017-06-19T03:54:36.100Z,961.7
2017-06-19T03:55:36.094Z,961.72
2017-06-19T03:56:36.088Z,961.77
2017-06-19T03:57:36.083Z,961.74
2017-06-19T03:58:36.076Z,961.75
2017-06-19T03:59:36.071Z,961.78
2017-06-19T04:00:36.065Z,961.8
2017-06-19T04:01:36.060Z,961.8
2017-06-19T04:02:36.054Z,961.8
2017-06-19T04:03:36.049Z,961.81
2017-06-19T04:04:36.042Z,961.81
2017-06-19T04:05:36.037Z,961.77
2017-06-19T04:06:36.031Z,961.8
2017-06-19T04:07:36.024Z,961.78
2017-06-19T04:08:36.021Z,961.8
2017-06-19T04:09:36.014Z,961.79
2017-06-19T04:10:36.009Z,961.83
2017-06-19T04:11:36.004Z,961.84
2017-06-19T04:12:36.016Z,961.84
2017-06-19T04:13:35.992Z,961.81
2017-06-19T04:14:35.985Z,961.81
2017-06-19T04:15:35.980Z,961.78
2017-06-19T04:16:35.975Z,961.81
2017-06-19T04:17:35.969Z,961.81
2017-06-19T04:18:35.963Z,961.83
2017-06-19T04:19:35.958Z,961.81
2017-06-19T04:20:35.954Z,961.84
2017-06-19T04:21:35.948Z,961.86
2017-06-19T04:22:35.941Z,961.83
2017-06-19T04:23:35.936Z,961.82
2017-06-19T04:24:35.931Z,961.83
2017-06-19T04:25:35.927Z,961.84
2017-06-19T04:26:35.920Z,961.81
2017-06-19T04:27:35.926Z,961.84
2017-06-19T04:28:35.910Z,961.82
2017-06-19T04:29:35.904Z,961.8
2017-06-19T04:30:35.897Z,961.8
2017-06-19T04:31:35.894Z,961.83
2017-06-19T04:32:35.888Z,961.79
2017-06-19T04:33:35.885Z,961.83
2017-06-19T04:34:35.878Z,961.85
2017-06-19T04:35:35.873Z,961.84
2017-06-19T04:36:35.869Z,961.9
2017-06-19T04:37:35.862Z,961.86
2017-06-19T04:38:35.857Z,961.84
2017-06-19T04:39:35.852Z,961.86
2017-06-19T04:40:35.847Z,961.88
2017-06-19T04:41:35.842Z,961.85
2017-06-19T04:42:35.847Z,961.87
2017-06-19T04:43:35.831Z,961.77
2017-06-19T04:44:35.827Z,961.79
2017-06-19T04:45:35.822Z,961.81
2017-06-19T04:46:35.835Z,961.82
2017-06-19T04:47:35.814Z,961.83
2017-06-19T04:48:35.808Z,961.81
2017-06-19T04:49:35.802Z,961.84
2017-06-19T04:50:35.797Z,961.85
2017-06-19T04:51:35.793Z,961.85
2017-06-19T04:52:35.787Z,961.84
2017-06-19T04:53:35.784Z,961.8
2017-06-19T04:54:35.780Z,961.86
2017-06-19T04:55:35.778Z,961.85
2017-06-19T04:56:35.770Z,961.85
2017-06-19T04:57:35.765Z,961.84
2017-06-19T04:58:35.761Z,961.86
2017-06-19T04:59:35.758Z,961.85
2017-06-19T05:00:35.752Z,961.91
2017-06-19T05:01:35.746Z,961.87
2017-06-19T05:02:35.742Z,961.87
2017-06-19T05:03:35.738Z,961.92
2017-06-19T05:04:35.733Z,961.91
2017-06-19T05:05:35.731Z,961.94
2017-06-19T05:06:35.725Z,961.89
2017-06-19T05:07:35.721Z,961.95
2017-06-19T05:08:35.717Z,961.9
2017-06-19T05:09:35.713Z,961.91
2017-06-19T05:10:35.708Z,961.9
2017-06-19T05:11:35.706Z,961.95
2017-06-19T05:12:35.702Z,961.94
2017-06-19T05:13:35.696Z,961.95
2017-06-19T05:14:35.693Z,962
2017-06-19T05:15:35.688Z,961.97
2017-06-19T05:16:35.684Z,961.96
2017-06-19T05:17:35.679Z,962
2017-06-19T05:18:35.677Z,961.92
2017-06-19T05:19:35.673Z,961.92
2017-06-19T05:20:35.668Z,961.96
2017-06-19T05:21:35.667Z,961.95
2017-06-19T05:22:35.661Z,961.91
2017-06-19T05:23:35.656Z,961.93
2017-06-19T05:24:35.652Z,961.98
2017-06-19T05:25:35.662Z,961.99
2017-06-19T05:26:35.646Z,961.98
2017-06-19T05:27:35.642Z,961.98
2017-06-19T05:28:35.637Z,961.98
2017-06-19T05:29:35.635Z,961.96
2017-06-19T05:30:35.630Z,962.01
2017-06-19T05:31:35.628Z,961.99
2017-06-19T05:32:35.624Z,961.99
2017-06-19T05:33:35.621Z,962.03
2017-06-19T05:34:35.617Z,962.02
2017-06-19T05:35:35.620Z,962.01
2017-06-19T05:36:35.609Z,962.02
2017-06-19T05:37:35.606Z,962.02
2017-06-19T05:38:35.604Z,962.01
2017-06-19T05:39:35.600Z,962.04
2017-06-19T05:40:35.597Z,962.05
2017-06-19T05:41:35.593Z,962.01
2017-06-19T05:42:35.591Z,962.04
2017-06-19T05:43:35.600Z,962.08
2017-06-19T05:44:35.585Z,962.06
2017-06-19T05:45:35.581Z,962.05
2017-06-19T05:46:35.578Z,962.03
2017-06-19T05:47:35.576Z,962.03
2017-06-19T05:48:35.572Z,962.06
2017-06-19T05:49:35.570Z,962.07
2017-06-19T05:50:35.571Z,962.05
2017-06-19T05:51:35.565Z,962.06
2017-06-19T05:52:35.561Z,962.03
2017-06-19T05:53:35.567Z,962.04
2017-06-19T05:54:35.556Z,962.03
2017-06-19T05:55:35.554Z,962.05
2017-06-19T05:56:35.552Z,962.05
2017-06-19T05:57:35.548Z,962.04
2017-06-19T05:58:35.545Z,962.06
2017-06-19T05:59:35.543Z,962.02
2017-06-19T06:00:35.544Z,962.09
2017-06-19T06:01:35.540Z,962.09
2017-06-19T06:02:35.537Z,962.06
2017-06-19T06:03:35.535Z,962.02
2017-06-19T06:04:35.531Z,962.06
2017-06-19T06:05:35.529Z,962.1
2017-06-19T06:06:35.527Z,962.08
2017-06-19T06:07:35.526Z,962.06
2017-06-19T06:08:35.524Z,962.06
2017-06-19T06:09:35.521Z,962.08
2017-06-19T06:10:35.520Z,962.04
2017-06-19T06:11:35.522Z,962.06
2017-06-19T06:12:35.516Z,962.1
2017-06-19T06:13:35.513Z,962.1
2017-06-19T06:14:35.511Z,962.11
2017-06-19T06:15:35.508Z,962.09
2017-06-19T06:16:35.507Z,962.12
2017-06-19T06:17:35.506Z,962.07
2017-06-19T06:18:35.504Z,962.11
2017-06-19T06:19:35.504Z,962.11
2017-06-19T06:20:35.501Z,962.12
2017-06-19T06:21:35.500Z,962.14
2017-06-19T06:22:35.497Z,962.1
2017-06-19T06:23:35.495Z,962.14
2017-06-19T06:24:35.496Z,962.12
2017-06-19T06:25:35.492Z,962.11
2017-06-19T06:26:35.489Z,962.17
2017-06-19T06:27:35.489Z,962.16
2017-06-19T06:28:35.488Z,962.17
2017-06-19T06:29:35.489Z,962.18
2017-06-19T06:30:35.498Z,962.19
2017-06-19T06:31:35.482Z,962.15
2017-06-19T06:32:35.481Z,962.13
2017-06-19T06:33:35.484Z,962.17
2017-06-19T06:34:35.480Z,962.17
2017-06-19T06:35:35.477Z,962.16
2017-06-19T06:36:35.476Z,962.18
2017-06-19T06:37:35.474Z,962.14
2017-06-19T06:38:35.475Z,962.14
2017-06-19T06:39:35.474Z,962.24
2017-06-19T06:40:35.472Z,962.19
2017-06-19T06:41:35.470Z,962.17
2017-06-19T06:42:35.469Z,962.2
2017-06-19T06:43:35.471Z,962.19
2017-06-19T06:44:35.470Z,962.2
2017-06-19T06:45:35.471Z,962.22
2017-06-19T06:46:35.472Z,962.2
2017-06-19T06:47:35.472Z,962.2
2017-06-19T06:48:35.474Z,962.23
2017-06-19T06:49:35.476Z,962.23
2017-06-19T06:50:35.479Z,962.23
2017-06-19T06:51:35.483Z,962.17
2017-06-19T06:52:35.484Z,962.13
2017-06-19T06:53:35.488Z,962.11
2017-06-19T06:54:35.491Z,962.17
2017-06-19T06:55:35.495Z,962.17
2017-06-19T06:56:35.498Z,962.15
2017-06-19T06:57:35.504Z,962.19
2017-06-19T06:58:35.509Z,962.22
2017-06-19T06:59:35.513Z,962.21
2017-06-19T07:00:35.521Z,962.21
2017-06-19T07:01:35.526Z,962.21
2017-06-19T07:02:35.532Z,962.23
2017-06-19T07:03:35.538Z,962.23
2017-06-19T07:04:35.544Z,962.24
2017-06-19T07:05:35.551Z,962.18
2017-06-19T07:06:35.557Z,962.21
2017-06-19T07:07:35.565Z,962.21
2017-06-19T07:08:35.571Z,962.21
2017-06-19T07:09:35.580Z,962.26
2017-06-19T07:10:35.587Z,962.29
2017-06-19T07:11:35.595Z,962.2
2017-06-19T07:12:35.604Z,962.24
2017-06-19T07:13:35.612Z,962.21
2017-06-19T07:14:35.619Z,962.18
2017-06-19T07:15:35.629Z,962.16
2017-06-19T07:16:35.638Z,962.18
2017-06-19T07:17:35.646Z,962.17
2017-06-19T07:18:35.655Z,962.18
2017-06-19T07:19:35.666Z,962.2
2017-06-19T07:20:35.675Z,962.25
2017-06-19T07:21:35.682Z,962.25
2017-06-19T07:22:35.692Z,962.25
2017-06-19T07:23:35.702Z,962.26
2017-06-19T07:24:35.712Z,962.24
2017-06-19T07:25:35.720Z,962.19
2017-06-19T07:26:35.731Z,962.16
2017-06-19T07:27:35.740Z,962.17
2017-06-19T07:28:35.749Z,962.2
2017-06-19T07:29:35.759Z,962.16
2017-06-19T07:30:35.769Z,962.18
2017-06-19T07:31:35.778Z,962.19
2017-06-19T07:32:35.807Z,962.18
2017-06-19T07:33:35.798Z,962.11
2017-06-19T07:34:35.808Z,962.06
2017-06-19T07:35:35.817Z,962.02
2017-06-19T07:36:35.827Z,962
2017-06-19T07:37:35.847Z,962
2017-06-19T07:38:35.848Z,961.98
2017-06-19T07:39:35.859Z,961.96
2017-06-19T07:40:35.867Z,961.94
2017-06-19T07:41:35.879Z,961.94
2017-06-19T07:42:35.890Z,961.91
2017-06-19T07:43:35.900Z,961.94
2017-06-19T07:44:35.911Z,961.94
2017-06-19T07:45:35.922Z,961.95
2017-06-19T07:46:35.932Z,961.94
2017-06-19T07:47:35.941Z,961.96
2017-06-19T07:48:35.952Z,961.94
2017-06-19T07:49:35.963Z,961.91
2017-06-19T07:50:35.973Z,961.9
2017-06-19T07:51:35.984Z,961.9
2017-06-19T07:52:35.995Z,961.9
2017-06-19T07:53:36.006Z,961.89
2017-06-19T07:54:36.016Z,961.83
2017-06-19T07:55:36.027Z,961.86
2017-06-19T07:56:36.038Z,961.82
2017-06-19T07:57:36.048Z,961.83
2017-06-19T07:58:36.060Z,961.8
2017-06-19T07:59:36.070Z,961.8
2017-06-19T08:00:36.082Z,961.78
2017-06-19T08:01:36.092Z,961.77
2017-06-19T08:02:36.127Z,961.73
2017-06-19T08:03:36.112Z,961.68
2017-06-19T08:04:36.124Z,961.67
2017-06-19T08:05:36.135Z,961.68
2017-06-19T08:06:36.161Z,961.66
2017-06-19T08:07:36.156Z,961.64
2017-06-19T08:08:36.166Z,961.6
2017-06-19T08:09:36.174Z,961.56
2017-06-19T08:10:36.184Z,961.62
2017-06-19T08:11:36.194Z,961.59
2017-06-19T08:12:36.202Z,961.63
2017-06-19T08:13:36.212Z,961.59
2017-06-19T08:14:36.221Z,961.61
2017-06-19T08:15:36.230Z,961.6
2017-06-19T08:16:36.237Z,961.6
2017-06-19T08:17:36.246Z,961.62
2017-06-19T08:18:36.254Z,961.6
2017-06-19T08:19:36.263Z,961.61
2017-06-19T08:20:36.272Z,961.6
2017-06-19T08:21:36.279Z,961.58
2017-06-19T08:22:36.287Z,961.59
2017-06-19T08:23:36.293Z,961.59
2017-06-19T08:24:36.303Z,961.55
2017-06-19T08:25:36.309Z,961.62
2017-06-19T08:26:36.316Z,961.6
2017-06-19T08:27:36.322Z,961.61
2017-06-19T08:28:36.329Z,961.6
2017-06-19T08:29:36.335Z,961.57
2017-06-19T08:30:36.341Z,961.59
2017-06-19T08:31:36.347Z,961.57
2017-06-19T08:32:36.352Z,961.54
2017-06-19T08:33:36.358Z,961.54
2017-06-19T08:34:36.364Z,961.5
2017-06-19T08:35:36.369Z,961.5
2017-06-19T08:36:36.378Z,961.53
2017-06-19T08:37:36.380Z,961.54
2017-06-19T08:38:36.384Z,961.5
2017-06-19T08:39:36.389Z,961.5
2017-06-19T08:40:36.394Z,961.49
2017-06-19T08:41:36.398Z,961.5
2017-06-19T08:42:36.403Z,961.47
2017-06-19T08:43:36.408Z,961.49
2017-06-19T08:44:36.414Z,961.49
2017-06-19T08:45:36.417Z,961.49
2017-06-19T08:46:36.422Z,961.48
2017-06-19T08:47:36.426Z,961.45
2017-06-19T08:48:36.430Z,961.5
2017-06-19T08:49:36.434Z,961.47
2017-06-19T08:50:36.437Z,961.52
2017-06-19T08:51:36.442Z,961.46
2017-06-19T08:52:36.444Z,961.45
2017-06-19T08:53:36.448Z,961.46
2017-06-19T08:54:36.454Z,961.45
2017-06-19T08:55:36.457Z,961.41
2017-06-19T08:56:36.461Z,961.4
2017-06-19T08:57:36.463Z,961.4
2017-06-19T08:58:36.468Z,961.41
2017-06-19T08:59:36.472Z,961.45
2017-06-19T09:00:36.475Z,961.39
2017-06-19T09:01:36.479Z,961.44
2017-06-19T09:02:36.483Z,961.43
2017-06-19T09:03:36.490Z,961.43
2017-06-19T09:04:36.490Z,961.35
2017-06-19T09:05:36.493Z,961.38
2017-06-19T09:06:36.546Z,961.36
2017-06-19T09:07:36.500Z,961.35
2017-06-19T09:08:36.503Z,961.33
2017-06-19T09:09:36.506Z,961.33
2017-06-19T09:10:36.509Z,961.33
2017-06-19T09:11:36.512Z,961.33
2017-06-19T09:12:36.517Z,961.35
2017-06-19T09:13:36.519Z,961.32
2017-06-19T09:14:36.522Z,961.35
2017-06-19T09:15:36.528Z,961.34
2017-06-19T09:16:36.540Z,961.34
2017-06-19T09:17:36.533Z,961.34
2017-06-19T09:18:36.537Z,961.3
2017-06-19T09:19:36.539Z,961.3
2017-06-19T09:20:36.566Z,961.29
2017-06-19T09:21:36.550Z,961.29
2017-06-19T09:22:36.550Z,961.28
2017-06-19T09:23:36.551Z,961.27
2017-06-19T09:24:36.556Z,961.22
2017-06-19T09:25:36.560Z,961.26
2017-06-19T09:26:36.562Z,961.24
2017-06-19T09:27:36.567Z,961.26
2017-06-19T09:28:36.570Z,961.25
2017-06-19T09:29:36.573Z,961.21
2017-06-19T09:30:36.577Z,961.24
2017-06-19T09:31:36.579Z,961.2
2017-06-19T09:32:36.584Z,961.22
2017-06-19T09:33:36.587Z,961.2
2017-06-19T09:34:36.590Z,961.22
2017-06-19T09:35:36.597Z,961.17
2017-06-19T09:36:36.596Z,961.16
2017-06-19T09:37:36.601Z,961.16
2017-06-19T09:38:36.608Z,961.13
2017-06-19T09:39:36.621Z,961.12
2017-06-19T09:40:36.611Z,961.12
2017-06-19T09:41:36.633Z,961.08
2017-06-19T09:42:36.618Z,961.14
2017-06-19T09:43:36.621Z,961.17
2017-06-19T09:44:36.624Z,961.13
2017-06-19T09:45:36.630Z,961.11
2017-06-19T09:46:36.631Z,961.1
2017-06-19T09:47:36.633Z,961.12
2017-06-19T09:48:36.642Z,961.16
2017-06-19T09:49:36.642Z,961.13
2017-06-19T09:50:36.645Z,961.14
2017-06-19T09:51:36.650Z,961.18
2017-06-19T09:52:36.665Z,961.13
2017-06-19T09:53:36.662Z,961.18
2017-06-19T09:54:36.660Z,961.18
2017-06-19T09:55:36.662Z,961.14
2017-06-19T09:56:36.666Z,961.15
2017-06-19T09:57:36.670Z,961.13
2017-06-19T09:58:36.673Z,961.1
2017-06-19T09:59:36.677Z,961.09
2017-06-19T10:00:36.680Z,961.08
2017-06-19T10:01:36.684Z,961.1
2017-06-19T10:02:36.687Z,961.11
2017-06-19T10:03:36.717Z,961.04
2017-06-19T10:04:36.694Z,961.03
2017-06-19T10:05:36.697Z,960.99
2017-06-19T10:06:36.701Z,961.01
2017-06-19T10:07:36.704Z,960.98
2017-06-19T10:08:36.708Z,960.93
2017-06-19T10:09:36.713Z,960.96
2017-06-19T10:10:36.716Z,960.96
2017-06-19T10:11:36.719Z,960.96
2017-06-19T10:12:36.723Z,960.95
2017-06-19T10:13:36.726Z,960.96
2017-06-19T10:14:36.730Z,960.93
2017-06-19T10:15:36.735Z,960.92
2017-06-19T10:16:36.738Z,960.94
2017-06-19T10:17:36.754Z,960.95
2017-06-19T10:18:36.745Z,960.95
2017-06-19T10:19:36.749Z,960.95
2017-06-19T10:20:36.752Z,960.92
2017-06-19T10:21:36.756Z,960.94
2017-06-19T10:22:36.760Z,960.91
2017-06-19T10:23:36.766Z,960.95
2017-06-19T10:24:36.766Z,960.89
2017-06-19T10:25:36.771Z,960.88
2017-06-19T10:26:36.776Z,960.85
2017-06-19T10:27:36.778Z,960.89
2017-06-19T10:28:36.782Z,960.9
2017-06-19T10:29:36.786Z,960.84
2017-06-19T10:30:36.790Z,960.88
2017-06-19T10:31:36.800Z,960.84
2017-06-19T10:32:36.796Z,960.9
2017-06-19T10:33:36.811Z,960.82
2017-06-19T10:34:36.805Z,960.84
2017-06-19T10:35:36.809Z,960.82
2017-06-19T10:36:36.820Z,960.77
2017-06-19T10:37:36.817Z,960.81
2017-06-19T10:38:36.833Z,960.81
2017-06-19T10:39:36.839Z,960.77
2017-06-19T10:40:36.850Z,960.78
2017-06-19T10:41:36.833Z,960.78
2017-06-19T10:42:36.836Z,960.73
2017-06-19T10:43:36.841Z,960.72
2017-06-19T10:44:36.846Z,960.72
2017-06-19T10:45:36.848Z,960.72
2017-06-19T10:46:36.852Z,960.67
2017-06-19T10:47:36.856Z,960.67
2017-06-19T10:48:36.859Z,960.65
2017-06-19T10:49:36.864Z,960.62
2017-06-19T10:50:36.868Z,960.62
2017-06-19T10:51:36.876Z,960.6
2017-06-19T10:52:36.877Z,960.62
2017-06-19T10:53:36.879Z,960.58
2017-06-19T10:54:36.885Z,960.55
2017-06-19T10:55:36.889Z,960.52
2017-06-19T10:56:36.893Z,960.51
2017-06-19T10:57:36.897Z,960.5
2017-06-19T10:58:36.901Z,960.49
2017-06-19T10:59:36.906Z,960.51
2017-06-19T11:00:36.909Z,960.53
2017-06-19T11:01:36.914Z,960.53
2017-06-19T11:02:36.919Z,960.52
2017-06-19T11:03:36.922Z,960.48
2017-06-19T11:04:36.925Z,960.5
2017-06-19T11:05:36.937Z,960.51
2017-06-19T11:06:36.936Z,960.51
2017-06-19T11:07:36.940Z,960.5
2017-06-19T11:08:36.943Z,960.53
2017-06-19T11:09:36.951Z,960.5
2017-06-19T11:10:36.952Z,960.48
2017-06-19T11:11:36.958Z,960.46
2017-06-19T11:12:36.980Z,960.48
2017-06-19T11:13:36.968Z,960.45
2017-06-19T11:14:36.967Z,960.49
2017-06-19T11:15:36.972Z,960.5
2017-06-19T11:16:36.977Z,960.46
2017-06-19T11:17:36.980Z,960.45
2017-06-19T11:18:36.985Z,960.45
2017-06-19T11:19:36.989Z,960.44
2017-06-19T11:20:36.992Z,960.45
2017-06-19T11:21:36.998Z,960.39
2017-06-19T11:22:37.001Z,960.43
2017-06-19T11:23:37.005Z,960.36
2017-06-19T11:24:37.011Z,960.35
2017-06-19T11:25:37.014Z,960.33
2017-06-19T11:26:37.017Z,960.33
2017-06-19T11:27:37.022Z,960.33
2017-06-19T11:28:37.033Z,960.3
2017-06-19T11:29:37.030Z,960.31
2017-06-19T11:30:37.034Z,960.28
2017-06-19T11:31:37.040Z,960.27
2017-06-19T11:32:37.065Z,960.25
2017-06-19T11:33:37.046Z,960.25
2017-06-19T11:34:37.050Z,960.23
2017-06-19T11:35:37.057Z,960.19
2017-06-19T11:36:37.060Z,960.17
2017-06-19T11:37:37.063Z,960.17
2017-06-19T11:38:37.066Z,960.17
2017-06-19T11:39:37.071Z,960.16
2017-06-19T11:40:37.075Z,960.17
2017-06-19T11:41:37.079Z,960.15
2017-06-19T11:42:37.083Z,960.16
2017-06-19T11:43:37.089Z,960.15
2017-06-19T11:44:37.091Z,960.15
2017-06-19T11:45:37.095Z,960.12
2017-06-19T11:46:37.100Z,960.08
2017-06-19T11:47:37.106Z,960.07
2017-06-19T11:48:37.108Z,960.05
2017-06-19T11:49:37.112Z,960.06
2017-06-19T11:50:37.116Z,960
2017-06-19T11:51:37.120Z,960.03
2017-06-19T11:52:37.123Z,960.02
2017-06-19T11:53:37.129Z,959.99
2017-06-19T11:54:37.132Z,959.96
2017-06-19T11:55:37.136Z,959.98
2017-06-19T11:56:37.140Z,959.97
2017-06-19T11:57:37.145Z,959.93
2017-06-19T11:58:37.157Z,959.91
2017-06-19T11:59:37.154Z,959.92
2017-06-19T12:00:37.158Z,959.92
2017-06-19T12:01:37.162Z,959.9
2017-06-19T12:02:37.165Z,959.91
2017-06-19T12:03:37.170Z,959.87
2017-06-19T12:04:37.174Z,959.86
2017-06-19T12:05:37.197Z,959.8
2017-06-19T12:06:37.182Z,959.81
2017-06-19T12:07:37.185Z,959.76
2017-06-19T12:08:37.190Z,959.77
2017-06-19T12:09:37.193Z,959.78
2017-06-19T12:10:37.197Z,959.76
2017-06-19T12:11:37.203Z,959.75
2017-06-19T12:12:37.206Z,959.79
2017-06-19T12:13:37.210Z,959.76
2017-06-19T12:14:37.214Z,959.75
2017-06-19T12:15:37.220Z,959.73
2017-06-19T12:16:37.223Z,959.73
2017-06-19T12:17:37.227Z,959.68
2017-06-19T12:18:37.231Z,959.68
2017-06-19T12:19:37.249Z,959.68
2017-06-19T12:20:37.242Z,959.63
2017-06-19T12:21:37.252Z,959.63
2017-06-19T12:22:37.247Z,959.63
2017-06-19T12:23:37.253Z,959.58
2017-06-19T12:24:37.258Z,959.59
2017-06-19T12:25:37.261Z,959.57
2017-06-19T12:26:37.280Z,959.58
2017-06-19T12:27:37.270Z,959.55
2017-06-19T12:28:37.272Z,959.56
2017-06-19T12:29:37.280Z,959.53
2017-06-19T12:30:37.283Z,959.51
2017-06-19T12:31:37.287Z,959.49